sensor_id;sensor_type;location;lat;lon;timestamp;temperature;humidity
18147;DHT22;9199;48.832;9.182;2023-05-10T00:01:47;13.80;99.90
18147;DHT22;9199;48.832;9.182;2023-05-10T00:04:14;13.70;99.90
18147;DHT22;9199;48.832;9.182;2023-05-10T00:06:40;13.60;99.90
18147;DHT22;9199;48.832;9.182;2023-05-10T00:09:09;13.60;99.90
18147;DHT22;9199;48.832;9.182;2023-05-10T00:11:35;13.50;99.90
18147;DHT22;9199;48.832;9.182;2023-05-10T00:14:02;13.50;99.90
18147;DHT22;9199;48.832;9.182;2023-05-10T00:16:29;13.40;99.90
18147;DHT22;9199;48.832;9.182;2023-05-10T00:18:56;13.40;99.90
18147;DHT22;9199;48.832;9.182;2023-05-10T00:21:22;13.40;99.90
18147;DHT22;9199;48.832;9.182;2023-05-10T00:23:49;13.40;99.90
18147;DHT22;9199;48.832;9.182;2023-05-10T00:26:17;13.40;99.90
18147;DHT22;9199;48.832;9.182;2023-05-10T00:28:44;13.40;99.90
18147;DHT22;9199;48.832;9.182;2023-05-10T00:31:10;13.40;99.90
18147;DHT22;9199;48.832;9.182;2023-05-10T00:33:37;13.40;99.90
18147;DHT22;9199;48.832;9.182;2023-05-10T00:36:04;13.40;99.90
18147;DHT22;9199;48.832;9.182;2023-05-10T00:38:33;13.30;99.90
18147;DHT22;9199;48.832;9.182;2023-05-10T00:40:59;13.40;99.90
18147;DHT22;9199;48.832;9.182;2023-05-10T00:43:27;13.30;99.90
18147;DHT22;9199;48.832;9.182;2023-05-10T00:45:54;13.30;99.90
18147;DHT22;9199;48.832;9.182;2023-05-10T00:48:21;13.30;99.90
18147;DHT22;9199;48.832;9.182;2023-05-10T00:50:48;13.20;99.90
18147;DHT22;9199;48.832;9.182;2023-05-10T00:53:15;13.20;99.90
18147;DHT22;9199;48.832;9.182;2023-05-10T00:55:43;13.20;99.90
18147;DHT22;9199;48.832;9.182;2023-05-10T00:58:09;13.10;99.90
18147;DHT22;9199;48.832;9.182;2023-05-10T01:00:38;13.10;99.90
18147;DHT22;9199;48.832;9.182;2023-05-10T01:03:08;13.10;99.90
18147;DHT22;9199;48.832;9.182;2023-05-10T01:05:34;13.10;99.90
18147;DHT22;9199;48.832;9.182;2023-05-10T01:08:01;13.10;99.90
18147;DHT22;9199;48.832;9.182;2023-05-10T01:10:29;13.00;99.90
18147;DHT22;9199;48.832;9.182;2023-05-10T01:12:55;13.00;99.90
18147;DHT22;9199;48.832;9.182;2023-05-10T01:15:22;13.00;99.90
18147;DHT22;9199;48.832;9.182;2023-05-10T01:17:51;13.00;99.90
18147;DHT22;9199;48.832;9.182;2023-05-10T01:20:18;13.00;99.90
18147;DHT22;9199;48.832;9.182;2023-05-10T01:23:01;13.00;99.90
18147;DHT22;9199;48.832;9.182;2023-05-10T01:26:01;13.00;99.90
18147;DHT22;9199;48.832;9.182;2023-05-10T01:31:30;13.00;99.90
18147;DHT22;9199;48.832;9.182;2023-05-10T01:34:02;12.90;99.90
18147;DHT22;9199;48.832;9.182;2023-05-10T01:36:40;12.90;99.90
18147;DHT22;9199;48.832;9.182;2023-05-10T01:39:25;12.90;99.90
18147;DHT22;9199;48.832;9.182;2023-05-10T01:41:59;13.00;99.90
18147;DHT22;9199;48.832;9.182;2023-05-10T01:44:35;13.00;99.90
18147;DHT22;9199;48.832;9.182;2023-05-10T01:47:07;12.90;99.90
18147;DHT22;9199;48.832;9.182;2023-05-10T01:49:39;12.90;99.90
18147;DHT22;9199;48.832;9.182;2023-05-10T01:52:10;12.90;99.90
18147;DHT22;9199;48.832;9.182;2023-05-10T01:54:40;12.90;99.90
18147;DHT22;9199;48.832;9.182;2023-05-10T01:57:08;12.90;99.90
18147;DHT22;9199;48.832;9.182;2023-05-10T01:59:38;12.90;99.90
18147;DHT22;9199;48.832;9.182;2023-05-10T02:02:07;12.90;99.90
18147;DHT22;9199;48.832;9.182;2023-05-10T02:04:39;12.90;99.90
18147;DHT22;9199;48.832;9.182;2023-05-10T02:07:06;12.90;99.90
18147;DHT22;9199;48.832;9.182;2023-05-10T02:09:35;12.90;99.90
18147;DHT22;9199;48.832;9.182;2023-05-10T02:12:04;12.90;99.90
18147;DHT22;9199;48.832;9.182;2023-05-10T02:14:35;12.90;99.90
18147;DHT22;9199;48.832;9.182;2023-05-10T02:17:04;12.90;99.90
18147;DHT22;9199;48.832;9.182;2023-05-10T02:19:32;12.90;99.90
18147;DHT22;9199;48.832;9.182;2023-05-10T02:22:02;12.90;99.90
18147;DHT22;9199;48.832;9.182;2023-05-10T02:24:29;12.80;99.90
18147;DHT22;9199;48.832;9.182;2023-05-10T02:26:58;12.80;99.90
18147;DHT22;9199;48.832;9.182;2023-05-10T02:29:27;12.80;99.90
18147;DHT22;9199;48.832;9.182;2023-05-10T02:31:55;12.80;99.90
18147;DHT22;9199;48.832;9.182;2023-05-10T02:34:23;12.70;99.90
18147;DHT22;9199;48.832;9.182;2023-05-10T02:36:52;12.70;99.90
18147;DHT22;9199;48.832;9.182;2023-05-10T02:39:21;12.70;99.90
18147;DHT22;9199;48.832;9.182;2023-05-10T02:41:50;12.70;99.90
18147;DHT22;9199;48.832;9.182;2023-05-10T02:44:18;12.70;99.90
18147;DHT22;9199;48.832;9.182;2023-05-10T02:46:46;12.80;99.90
18147;DHT22;9199;48.832;9.182;2023-05-10T02:49:13;12.80;99.90
18147;DHT22;9199;48.832;9.182;2023-05-10T02:51:41;12.80;99.90
18147;DHT22;9199;48.832;9.182;2023-05-10T02:54:12;12.80;99.90
18147;DHT22;9199;48.832;9.182;2023-05-10T02:56:46;12.80;99.90
18147;DHT22;9199;48.832;9.182;2023-05-10T02:59:14;12.80;99.90
18147;DHT22;9199;48.832;9.182;2023-05-10T03:01:41;12.80;99.90
18147;DHT22;9199;48.832;9.182;2023-05-10T03:04:07;12.80;99.90
18147;DHT22;9199;48.832;9.182;2023-05-10T03:06:34;12.80;99.90
18147;DHT22;9199;48.832;9.182;2023-05-10T03:09:02;12.80;99.90
18147;DHT22;9199;48.832;9.182;2023-05-10T03:11:43;12.80;99.90
18147;DHT22;9199;48.832;9.182;2023-05-10T03:14:36;12.80;99.90
18147;DHT22;9199;48.832;9.182;2023-05-10T03:17:23;12.80;99.90
18147;DHT22;9199;48.832;9.182;2023-05-10T03:19:54;12.80;99.90
18147;DHT22;9199;48.832;9.182;2023-05-10T03:22:24;12.80;99.90
18147;DHT22;9199;48.832;9.182;2023-05-10T03:24:53;12.90;99.90
18147;DHT22;9199;48.832;9.182;2023-05-10T03:27:25;12.90;99.90
18147;DHT22;9199;48.832;9.182;2023-05-10T03:29:53;12.90;99.90
18147;DHT22;9199;48.832;9.182;2023-05-10T03:32:19;12.90;99.90
18147;DHT22;9199;48.832;9.182;2023-05-10T03:34:46;13.00;99.90
18147;DHT22;9199;48.832;9.182;2023-05-10T03:37:13;13.00;99.90
18147;DHT22;9199;48.832;9.182;2023-05-10T03:39:39;13.00;99.90
18147;DHT22;9199;48.832;9.182;2023-05-10T03:42:06;13.00;99.90
18147;DHT22;9199;48.832;9.182;2023-05-10T03:44:34;13.00;99.90
18147;DHT22;9199;48.832;9.182;2023-05-10T03:47:01;13.00;99.90
18147;DHT22;9199;48.832;9.182;2023-05-10T03:49:27;13.00;99.90
18147;DHT22;9199;48.832;9.182;2023-05-10T03:51:54;13.00;99.90
18147;DHT22;9199;48.832;9.182;2023-05-10T03:54:21;12.90;99.90
18147;DHT22;9199;48.832;9.182;2023-05-10T03:56:47;12.90;99.90
18147;DHT22;9199;48.832;9.182;2023-05-10T03:59:14;12.90;99.90
18147;DHT22;9199;48.832;9.182;2023-05-10T04:01:42;13.00;99.90
18147;DHT22;9199;48.832;9.182;2023-05-10T04:04:09;12.90;99.90
18147;DHT22;9199;48.832;9.182;2023-05-10T04:06:35;12.90;99.90
18147;DHT22;9199;48.832;9.182;2023-05-10T04:09:02;12.90;99.90
18147;DHT22;9199;48.832;9.182;2023-05-10T04:11:30;13.00;99.90
18147;DHT22;9199;48.832;9.182;2023-05-10T04:13:56;13.00;99.90
18147;DHT22;9199;48.832;9.182;2023-05-10T04:16:23;13.00;99.90
18147;DHT22;9199;48.832;9.182;2023-05-10T04:18:51;13.00;99.90
18147;DHT22;9199;48.832;9.182;2023-05-10T04:21:18;13.00;99.90
18147;DHT22;9199;48.832;9.182;2023-05-10T04:23:44;13.10;99.90
18147;DHT22;9199;48.832;9.182;2023-05-10T04:26:12;13.10;99.90
18147;DHT22;9199;48.832;9.182;2023-05-10T04:28:38;13.20;99.90
18147;DHT22;9199;48.832;9.182;2023-05-10T04:31:06;13.10;99.90
18147;DHT22;9199;48.832;9.182;2023-05-10T04:33:33;13.10;99.90
18147;DHT22;9199;48.832;9.182;2023-05-10T04:36:02;13.10;99.90
18147;DHT22;9199;48.832;9.182;2023-05-10T04:38:29;13.10;99.90
18147;DHT22;9199;48.832;9.182;2023-05-10T04:41:04;13.10;99.90
18147;DHT22;9199;48.832;9.182;2023-05-10T04:43:30;13.10;99.90
18147;DHT22;9199;48.832;9.182;2023-05-10T04:45:57;13.10;99.90
18147;DHT22;9199;48.832;9.182;2023-05-10T04:48:24;13.20;99.90
18147;DHT22;9199;48.832;9.182;2023-05-10T04:50:51;13.20;99.90
18147;DHT22;9199;48.832;9.182;2023-05-10T04:53:19;13.20;99.90
18147;DHT22;9199;48.832;9.182;2023-05-10T04:55:45;13.20;99.90
18147;DHT22;9199;48.832;9.182;2023-05-10T04:58:13;13.30;99.90
18147;DHT22;9199;48.832;9.182;2023-05-10T05:00:40;13.30;99.90
18147;DHT22;9199;48.832;9.182;2023-05-10T05:03:07;13.30;99.90
18147;DHT22;9199;48.832;9.182;2023-05-10T05:05:33;13.50;99.90
18147;DHT22;9199;48.832;9.182;2023-05-10T05:08:00;13.90;99.90
18147;DHT22;9199;48.832;9.182;2023-05-10T05:10:28;14.30;99.90
18147;DHT22;9199;48.832;9.182;2023-05-10T05:12:55;14.40;99.90
18147;DHT22;9199;48.832;9.182;2023-05-10T05:15:22;14.60;99.90
18147;DHT22;9199;48.832;9.182;2023-05-10T05:17:48;14.70;99.90
18147;DHT22;9199;48.832;9.182;2023-05-10T05:20:15;14.80;99.90
18147;DHT22;9199;48.832;9.182;2023-05-10T05:22:42;14.80;99.90
18147;DHT22;9199;48.832;9.182;2023-05-10T05:25:09;14.90;99.90
18147;DHT22;9199;48.832;9.182;2023-05-10T05:27:38;15.00;99.90
18147;DHT22;9199;48.832;9.182;2023-05-10T05:30:06;15.10;99.90
18147;DHT22;9199;48.832;9.182;2023-05-10T05:32:33;15.00;99.90
18147;DHT22;9199;48.832;9.182;2023-05-10T05:35:00;15.10;99.90
18147;DHT22;9199;48.832;9.182;2023-05-10T05:37:26;15.20;99.90
18147;DHT22;9199;48.832;9.182;2023-05-10T05:39:53;15.50;99.90
18147;DHT22;9199;48.832;9.182;2023-05-10T05:42:20;15.70;99.90
18147;DHT22;9199;48.832;9.182;2023-05-10T05:44:48;15.70;99.90
18147;DHT22;9199;48.832;9.182;2023-05-10T05:47:15;15.70;99.90
18147;DHT22;9199;48.832;9.182;2023-05-10T05:49:41;15.90;99.90
18147;DHT22;9199;48.832;9.182;2023-05-10T05:52:11;16.00;99.90
18147;DHT22;9199;48.832;9.182;2023-05-10T05:54:37;16.10;99.90
18147;DHT22;9199;48.832;9.182;2023-05-10T05:57:04;16.10;99.90
18147;DHT22;9199;48.832;9.182;2023-05-10T05:59:31;16.10;99.90
18147;DHT22;9199;48.832;9.182;2023-05-10T06:01:59;16.10;99.90
18147;DHT22;9199;48.832;9.182;2023-05-10T06:04:26;16.00;99.90
18147;DHT22;9199;48.832;9.182;2023-05-10T06:06:52;15.70;99.90
18147;DHT22;9199;48.832;9.182;2023-05-10T06:09:19;15.40;99.90
18147;DHT22;9199;48.832;9.182;2023-05-10T06:11:46;15.30;99.90
18147;DHT22;9199;48.832;9.182;2023-05-10T06:14:13;15.20;99.90
18147;DHT22;9199;48.832;9.182;2023-05-10T06:16:40;15.20;99.90
18147;DHT22;9199;48.832;9.182;2023-05-10T06:19:08;15.10;99.90
18147;DHT22;9199;48.832;9.182;2023-05-10T06:21:34;15.10;99.90
18147;DHT22;9199;48.832;9.182;2023-05-10T06:24:01;15.10;99.90
18147;DHT22;9199;48.832;9.182;2023-05-10T06:26:28;15.10;99.90
18147;DHT22;9199;48.832;9.182;2023-05-10T06:28:55;15.10;99.90
18147;DHT22;9199;48.832;9.182;2023-05-10T06:31:22;15.20;99.90
18147;DHT22;9199;48.832;9.182;2023-05-10T06:33:48;15.10;99.90
18147;DHT22;9199;48.832;9.182;2023-05-10T06:36:16;15.10;99.90
18147;DHT22;9199;48.832;9.182;2023-05-10T06:38:43;15.10;99.90
18147;DHT22;9199;48.832;9.182;2023-05-10T06:41:10;15.10;99.90
18147;DHT22;9199;48.832;9.182;2023-05-10T06:43:37;15.10;99.90
18147;DHT22;9199;48.832;9.182;2023-05-10T06:46:05;15.10;99.90
18147;DHT22;9199;48.832;9.182;2023-05-10T06:48:32;15.10;99.90
18147;DHT22;9199;48.832;9.182;2023-05-10T06:50:59;15.20;99.90
18147;DHT22;9199;48.832;9.182;2023-05-10T06:53:27;15.20;99.90
18147;DHT22;9199;48.832;9.182;2023-05-10T06:55:54;15.30;99.90
18147;DHT22;9199;48.832;9.182;2023-05-10T06:58:20;15.40;99.90
18147;DHT22;9199;48.832;9.182;2023-05-10T07:00:47;15.50;99.90
18147;DHT22;9199;48.832;9.182;2023-05-10T07:03:14;15.50;99.90
18147;DHT22;9199;48.832;9.182;2023-05-10T07:05:41;15.50;99.90
18147;DHT22;9199;48.832;9.182;2023-05-10T07:08:08;15.40;99.90
18147;DHT22;9199;48.832;9.182;2023-05-10T07:10:36;15.50;99.90
18147;DHT22;9199;48.832;9.182;2023-05-10T07:13:03;15.60;99.90
18147;DHT22;9199;48.832;9.182;2023-05-10T07:15:29;15.70;99.90
18147;DHT22;9199;48.832;9.182;2023-05-10T07:17:56;15.90;99.90
18147;DHT22;9199;48.832;9.182;2023-05-10T07:20:23;15.90;99.90
18147;DHT22;9199;48.832;9.182;2023-05-10T07:22:49;16.00;99.90
18147;DHT22;9199;48.832;9.182;2023-05-10T07:25:16;16.10;99.90
18147;DHT22;9199;48.832;9.182;2023-05-10T07:27:44;16.00;99.90
18147;DHT22;9199;48.832;9.182;2023-05-10T07:30:12;16.10;99.90
18147;DHT22;9199;48.832;9.182;2023-05-10T07:32:39;16.20;99.90
18147;DHT22;9199;48.832;9.182;2023-05-10T07:35:08;16.30;99.90
18147;DHT22;9199;48.832;9.182;2023-05-10T07:37:34;16.50;99.90
18147;DHT22;9199;48.832;9.182;2023-05-10T07:40:01;16.60;99.90
18147;DHT22;9199;48.832;9.182;2023-05-10T07:42:28;16.70;99.90
18147;DHT22;9199;48.832;9.182;2023-05-10T07:44:56;16.80;99.90
18147;DHT22;9199;48.832;9.182;2023-05-10T07:47:23;16.90;99.90
18147;DHT22;9199;48.832;9.182;2023-05-10T07:49:49;17.00;99.90
18147;DHT22;9199;48.832;9.182;2023-05-10T07:52:16;17.00;99.90
18147;DHT22;9199;48.832;9.182;2023-05-10T07:54:43;17.10;99.90
18147;DHT22;9199;48.832;9.182;2023-05-10T07:57:10;17.20;99.90
18147;DHT22;9199;48.832;9.182;2023-05-10T07:59:36;17.10;99.90
18147;DHT22;9199;48.832;9.182;2023-05-10T08:02:04;16.90;99.90
18147;DHT22;9199;48.832;9.182;2023-05-10T08:04:31;16.60;99.90
18147;DHT22;9199;48.832;9.182;2023-05-10T08:06:57;16.60;99.90
18147;DHT22;9199;48.832;9.182;2023-05-10T08:09:24;16.50;99.90
18147;DHT22;9199;48.832;9.182;2023-05-10T08:11:51;16.40;99.90
18147;DHT22;9199;48.832;9.182;2023-05-10T08:14:18;16.40;99.90
18147;DHT22;9199;48.832;9.182;2023-05-10T08:16:45;16.20;99.90
18147;DHT22;9199;48.832;9.182;2023-05-10T08:19:13;16.20;99.90
18147;DHT22;9199;48.832;9.182;2023-05-10T08:21:39;16.20;99.90
18147;DHT22;9199;48.832;9.182;2023-05-10T08:24:07;16.20;99.90
18147;DHT22;9199;48.832;9.182;2023-05-10T08:26:34;16.10;99.90
18147;DHT22;9199;48.832;9.182;2023-05-10T08:29:01;16.10;99.90
18147;DHT22;9199;48.832;9.182;2023-05-10T08:31:27;16.20;99.90
18147;DHT22;9199;48.832;9.182;2023-05-10T08:33:54;16.40;99.90
18147;DHT22;9199;48.832;9.182;2023-05-10T08:36:22;16.50;99.90
18147;DHT22;9199;48.832;9.182;2023-05-10T08:38:50;16.50;99.90
18147;DHT22;9199;48.832;9.182;2023-05-10T08:41:18;16.50;99.90
18147;DHT22;9199;48.832;9.182;2023-05-10T08:43:46;16.50;99.90
18147;DHT22;9199;48.832;9.182;2023-05-10T08:46:16;16.50;99.90
18147;DHT22;9199;48.832;9.182;2023-05-10T08:48:44;16.60;99.90
18147;DHT22;9199;48.832;9.182;2023-05-10T08:51:13;16.80;99.90
18147;DHT22;9199;48.832;9.182;2023-05-10T08:53:41;17.00;99.90
18147;DHT22;9199;48.832;9.182;2023-05-10T08:56:08;17.20;99.90
18147;DHT22;9199;48.832;9.182;2023-05-10T08:58:35;17.30;99.90
18147;DHT22;9199;48.832;9.182;2023-05-10T09:01:02;17.50;99.90
18147;DHT22;9199;48.832;9.182;2023-05-10T09:03:29;17.80;99.90
18147;DHT22;9199;48.832;9.182;2023-05-10T09:05:56;17.70;99.90
18147;DHT22;9199;48.832;9.182;2023-05-10T09:08:23;17.60;99.90
18147;DHT22;9199;48.832;9.182;2023-05-10T09:10:53;17.60;99.90
18147;DHT22;9199;48.832;9.182;2023-05-10T09:13:21;17.80;99.90
18147;DHT22;9199;48.832;9.182;2023-05-10T09:15:49;18.10;99.90
18147;DHT22;9199;48.832;9.182;2023-05-10T09:18:15;18.20;99.90
18147;DHT22;9199;48.832;9.182;2023-05-10T09:20:42;18.20;99.90
18147;DHT22;9199;48.832;9.182;2023-05-10T09:23:09;18.40;99.90
18147;DHT22;9199;48.832;9.182;2023-05-10T09:25:35;18.60;99.90
18147;DHT22;9199;48.832;9.182;2023-05-10T09:28:07;18.80;99.90
18147;DHT22;9199;48.832;9.182;2023-05-10T09:30:35;18.80;99.90
18147;DHT22;9199;48.832;9.182;2023-05-10T09:33:02;18.80;99.90
18147;DHT22;9199;48.832;9.182;2023-05-10T09:35:30;18.80;99.90
18147;DHT22;9199;48.832;9.182;2023-05-10T09:37:58;18.60;99.90
18147;DHT22;9199;48.832;9.182;2023-05-10T09:40:26;18.80;99.90
18147;DHT22;9199;48.832;9.182;2023-05-10T09:42:55;19.00;99.90
18147;DHT22;9199;48.832;9.182;2023-05-10T09:45:27;19.00;99.90
18147;DHT22;9199;48.832;9.182;2023-05-10T09:47:54;18.90;99.90
18147;DHT22;9199;48.832;9.182;2023-05-10T09:50:21;18.90;99.90
18147;DHT22;9199;48.832;9.182;2023-05-10T09:52:50;18.70;99.90
18147;DHT22;9199;48.832;9.182;2023-05-10T09:55:18;18.30;99.90
18147;DHT22;9199;48.832;9.182;2023-05-10T09:57:46;17.70;99.90
18147;DHT22;9199;48.832;9.182;2023-05-10T10:00:17;17.50;99.90
18147;DHT22;9199;48.832;9.182;2023-05-10T10:02:47;17.20;99.90
18147;DHT22;9199;48.832;9.182;2023-05-10T10:05:15;17.20;99.90
18147;DHT22;9199;48.832;9.182;2023-05-10T10:07:41;17.20;99.90
18147;DHT22;9199;48.832;9.182;2023-05-10T10:10:09;17.40;99.90
18147;DHT22;9199;48.832;9.182;2023-05-10T10:12:38;17.50;99.90
18147;DHT22;9199;48.832;9.182;2023-05-10T10:15:07;17.70;99.90
18147;DHT22;9199;48.832;9.182;2023-05-10T10:17:35;17.60;99.90
18147;DHT22;9199;48.832;9.182;2023-05-10T10:20:04;17.40;99.90
18147;DHT22;9199;48.832;9.182;2023-05-10T10:22:31;17.30;99.90
18147;DHT22;9199;48.832;9.182;2023-05-10T10:24:58;17.20;99.90
18147;DHT22;9199;48.832;9.182;2023-05-10T10:27:32;17.30;99.90
18147;DHT22;9199;48.832;9.182;2023-05-10T10:30:06;17.50;99.90
18147;DHT22;9199;48.832;9.182;2023-05-10T10:32:47;17.80;99.90
18147;DHT22;9199;48.832;9.182;2023-05-10T10:35:16;18.10;99.90
18147;DHT22;9199;48.832;9.182;2023-05-10T10:37:44;18.50;99.90
18147;DHT22;9199;48.832;9.182;2023-05-10T10:40:25;18.80;99.90
18147;DHT22;9199;48.832;9.182;2023-05-10T10:42:52;18.70;99.90
18147;DHT22;9199;48.832;9.182;2023-05-10T10:45:19;18.60;99.90
18147;DHT22;9199;48.832;9.182;2023-05-10T10:47:46;18.40;99.90
18147;DHT22;9199;48.832;9.182;2023-05-10T10:50:13;18.50;99.90
18147;DHT22;9199;48.832;9.182;2023-05-10T10:52:43;18.90;99.90
18147;DHT22;9199;48.832;9.182;2023-05-10T10:55:11;19.30;99.90
18147;DHT22;9199;48.832;9.182;2023-05-10T10:57:47;19.90;99.90
18147;DHT22;9199;48.832;9.182;2023-05-10T11:00:38;20.10;99.20
18147;DHT22;9199;48.832;9.182;2023-05-10T11:03:08;20.00;99.90
18147;DHT22;9199;48.832;9.182;2023-05-10T11:05:42;20.50;99.30
18147;DHT22;9199;48.832;9.182;2023-05-10T11:08:18;20.40;97.00
18147;DHT22;9199;48.832;9.182;2023-05-10T11:11:06;20.00;97.00
18147;DHT22;9199;48.832;9.182;2023-05-10T11:13:40;19.60;97.70
18147;DHT22;9199;48.832;9.182;2023-05-10T11:16:13;19.60;97.30
18147;DHT22;9199;48.832;9.182;2023-05-10T11:18:40;19.20;97.30
18147;DHT22;9199;48.832;9.182;2023-05-10T11:21:09;19.00;97.70
18147;DHT22;9199;48.832;9.182;2023-05-10T11:23:50;18.80;98.00
18147;DHT22;9199;48.832;9.182;2023-05-10T11:26:17;18.60;98.90
18147;DHT22;9199;48.832;9.182;2023-05-10T11:28:45;18.50;98.40
18147;DHT22;9199;48.832;9.182;2023-05-10T11:31:14;18.30;98.90
18147;DHT22;9199;48.832;9.182;2023-05-10T11:33:44;18.00;98.60
18147;DHT22;9199;48.832;9.182;2023-05-10T11:36:11;17.60;99.40
18147;DHT22;9199;48.832;9.182;2023-05-10T11:38:38;17.60;99.70
18147;DHT22;9199;48.832;9.182;2023-05-10T11:41:08;17.70;99.90
18147;DHT22;9199;48.832;9.182;2023-05-10T11:43:35;17.90;99.90
18147;DHT22;9199;48.832;9.182;2023-05-10T11:46:04;18.20;99.90
18147;DHT22;9199;48.832;9.182;2023-05-10T11:48:30;18.90;98.20
18147;DHT22;9199;48.832;9.182;2023-05-10T11:50:57;19.50;97.10
18147;DHT22;9199;48.832;9.182;2023-05-10T11:53:25;19.70;97.10
18147;DHT22;9199;48.832;9.182;2023-05-10T11:55:52;19.20;96.30
18147;DHT22;9199;48.832;9.182;2023-05-10T11:58:20;18.80;96.60
18147;DHT22;9199;48.832;9.182;2023-05-10T12:00:49;18.60;98.60
18147;DHT22;9199;48.832;9.182;2023-05-10T12:03:16;18.40;97.60
18147;DHT22;9199;48.832;9.182;2023-05-10T12:05:43;18.00;98.20
18147;DHT22;9199;48.832;9.182;2023-05-10T12:08:14;17.70;98.80
18147;DHT22;9199;48.832;9.182;2023-05-10T12:10:41;17.60;99.50
18147;DHT22;9199;48.832;9.182;2023-05-10T12:13:11;17.60;99.90
18147;DHT22;9199;48.832;9.182;2023-05-10T12:15:41;17.60;99.90
18147;DHT22;9199;48.832;9.182;2023-05-10T12:18:08;17.60;99.90
18147;DHT22;9199;48.832;9.182;2023-05-10T12:20:36;17.60;99.90
18147;DHT22;9199;48.832;9.182;2023-05-10T12:23:02;17.70;99.90
18147;DHT22;9199;48.832;9.182;2023-05-10T12:25:31;17.80;99.90
18147;DHT22;9199;48.832;9.182;2023-05-10T12:28:00;17.80;98.80
18147;DHT22;9199;48.832;9.182;2023-05-10T12:30:30;17.60;98.40
18147;DHT22;9199;48.832;9.182;2023-05-10T12:33:01;17.60;98.50
18147;DHT22;9199;48.832;9.182;2023-05-10T12:35:30;17.70;98.90
18147;DHT22;9199;48.832;9.182;2023-05-10T12:37:57;18.20;98.60
18147;DHT22;9199;48.832;9.182;2023-05-10T12:40:24;18.70;97.20
18147;DHT22;9199;48.832;9.182;2023-05-10T12:42:51;18.60;95.70
18147;DHT22;9199;48.832;9.182;2023-05-10T12:45:18;18.90;97.20
18147;DHT22;9199;48.832;9.182;2023-05-10T12:47:45;19.20;95.70
18147;DHT22;9199;48.832;9.182;2023-05-10T12:50:13;19.20;95.70
18147;DHT22;9199;48.832;9.182;2023-05-10T12:52:39;18.90;95.50
18147;DHT22;9199;48.832;9.182;2023-05-10T12:55:07;18.60;95.20
18147;DHT22;9199;48.832;9.182;2023-05-10T12:57:33;18.40;95.80
18147;DHT22;9199;48.832;9.182;2023-05-10T13:00:00;18.10;96.50
18147;DHT22;9199;48.832;9.182;2023-05-10T13:02:27;17.90;96.80
18147;DHT22;9199;48.832;9.182;2023-05-10T13:04:53;17.90;97.30
18147;DHT22;9199;48.832;9.182;2023-05-10T13:07:21;17.80;96.70
18147;DHT22;9199;48.832;9.182;2023-05-10T13:09:48;17.90;97.00
18147;DHT22;9199;48.832;9.182;2023-05-10T13:12:15;18.20;96.90
18147;DHT22;9199;48.832;9.182;2023-05-10T13:14:42;18.50;96.80
18147;DHT22;9199;48.832;9.182;2023-05-10T13:17:08;18.40;96.90
18147;DHT22;9199;48.832;9.182;2023-05-10T13:19:35;18.30;96.80
18147;DHT22;9199;48.832;9.182;2023-05-10T13:22:02;18.10;96.50
18147;DHT22;9199;48.832;9.182;2023-05-10T13:24:30;18.00;97.20
18147;DHT22;9199;48.832;9.182;2023-05-10T13:26:57;17.90;97.10
18147;DHT22;9199;48.832;9.182;2023-05-10T13:29:24;17.80;97.10
18147;DHT22;9199;48.832;9.182;2023-05-10T13:31:51;17.80;97.60
18147;DHT22;9199;48.832;9.182;2023-05-10T13:34:18;17.80;97.10
18147;DHT22;9199;48.832;9.182;2023-05-10T13:36:46;17.80;97.20
18147;DHT22;9199;48.832;9.182;2023-05-10T13:39:13;17.60;96.90
18147;DHT22;9199;48.832;9.182;2023-05-10T13:41:41;17.60;97.20
18147;DHT22;9199;48.832;9.182;2023-05-10T13:44:08;17.80;97.50
18147;DHT22;9199;48.832;9.182;2023-05-10T13:46:35;17.80;97.00
18147;DHT22;9199;48.832;9.182;2023-05-10T13:49:05;18.00;97.20
18147;DHT22;9199;48.832;9.182;2023-05-10T13:51:34;18.20;97.30
18147;DHT22;9199;48.832;9.182;2023-05-10T13:54:01;18.40;97.10
18147;DHT22;9199;48.832;9.182;2023-05-10T13:56:29;18.60;96.10
18147;DHT22;9199;48.832;9.182;2023-05-10T13:58:57;18.60;95.80
18147;DHT22;9199;48.832;9.182;2023-05-10T14:01:24;18.50;95.10
18147;DHT22;9199;48.832;9.182;2023-05-10T14:03:51;18.40;95.20
18147;DHT22;9199;48.832;9.182;2023-05-10T14:06:19;18.40;96.10
18147;DHT22;9199;48.832;9.182;2023-05-10T14:08:47;18.40;96.10
18147;DHT22;9199;48.832;9.182;2023-05-10T14:11:14;18.30;95.70
18147;DHT22;9199;48.832;9.182;2023-05-10T14:13:41;18.30;95.50
18147;DHT22;9199;48.832;9.182;2023-05-10T14:16:09;18.40;94.40
18147;DHT22;9199;48.832;9.182;2023-05-10T14:18:37;18.40;93.60
18147;DHT22;9199;48.832;9.182;2023-05-10T14:21:03;18.50;94.50
18147;DHT22;9199;48.832;9.182;2023-05-10T14:23:31;18.50;93.20
18147;DHT22;9199;48.832;9.182;2023-05-10T14:25:58;18.30;93.30
18147;DHT22;9199;48.832;9.182;2023-05-10T14:28:25;18.50;93.50
18147;DHT22;9199;48.832;9.182;2023-05-10T14:30:52;18.70;92.80
18147;DHT22;9199;48.832;9.182;2023-05-10T14:33:21;18.80;92.40
18147;DHT22;9199;48.832;9.182;2023-05-10T14:35:48;18.90;92.20
18147;DHT22;9199;48.832;9.182;2023-05-10T14:38:15;18.60;91.70
18147;DHT22;9199;48.832;9.182;2023-05-10T14:40:42;18.60;92.50
18147;DHT22;9199;48.832;9.182;2023-05-10T14:43:09;18.70;93.10
18147;DHT22;9199;48.832;9.182;2023-05-10T14:45:36;18.80;93.00
18147;DHT22;9199;48.832;9.182;2023-05-10T14:48:03;19.00;93.20
18147;DHT22;9199;48.832;9.182;2023-05-10T14:50:32;19.00;92.80
18147;DHT22;9199;48.832;9.182;2023-05-10T14:52:59;19.00;93.50
18147;DHT22;9199;48.832;9.182;2023-05-10T14:55:26;19.20;93.20
18147;DHT22;9199;48.832;9.182;2023-05-10T14:57:53;18.90;92.90
18147;DHT22;9199;48.832;9.182;2023-05-10T15:00:20;18.80;93.50
18147;DHT22;9199;48.832;9.182;2023-05-10T15:02:47;18.90;93.50
18147;DHT22;9199;48.832;9.182;2023-05-10T15:05:15;18.80;93.80
18147;DHT22;9199;48.832;9.182;2023-05-10T15:07:43;18.90;94.70
18147;DHT22;9199;48.832;9.182;2023-05-10T15:10:10;19.00;95.40
18147;DHT22;9199;48.832;9.182;2023-05-10T15:12:37;19.20;94.40
18147;DHT22;9199;48.832;9.182;2023-05-10T15:15:05;19.30;94.30
18147;DHT22;9199;48.832;9.182;2023-05-10T15:17:32;19.40;93.90
18147;DHT22;9199;48.832;9.182;2023-05-10T15:19:59;19.50;93.20
18147;DHT22;9199;48.832;9.182;2023-05-10T15:22:28;19.50;93.70
18147;DHT22;9199;48.832;9.182;2023-05-10T15:25:00;19.40;93.30
18147;DHT22;9199;48.832;9.182;2023-05-10T15:27:27;19.30;93.80
18147;DHT22;9199;48.832;9.182;2023-05-10T15:29:54;19.10;94.40
18147;DHT22;9199;48.832;9.182;2023-05-10T15:32:22;19.10;93.80
18147;DHT22;9199;48.832;9.182;2023-05-10T15:34:50;18.90;94.00
18147;DHT22;9199;48.832;9.182;2023-05-10T15:37:17;18.70;94.30
18147;DHT22;9199;48.832;9.182;2023-05-10T15:39:44;18.70;94.50
18147;DHT22;9199;48.832;9.182;2023-05-10T15:42:13;18.80;95.30
18147;DHT22;9199;48.832;9.182;2023-05-10T15:44:40;18.80;94.90
18147;DHT22;9199;48.832;9.182;2023-05-10T15:47:07;18.80;95.30
18147;DHT22;9199;48.832;9.182;2023-05-10T15:49:34;18.90;95.10
18147;DHT22;9199;48.832;9.182;2023-05-10T15:52:01;18.90;95.10
18147;DHT22;9199;48.832;9.182;2023-05-10T15:54:28;18.80;95.00